Time;durP1;ratioP1;P1;durP2;ratioP2;P2;SDS_P1;SDS_P2;PMS_P1;PMS_P2;Temp;Humidity;BMP_temperature;BMP_pressure;BME280_temperature;BME280_humidity;BME280_pressure;Samples;Min_cycle;Max_cycle;Signal;HPM_P1;HPM_P2
2023/11/11 00:00:50;;;;;;;12.85;8.13;;;9.40;88.50;;;;;;9166693;19;20055;-72
2023/11/11 00:03:55;;;;;;;21.48;9.15;;;9.40;88.50;;;;;;9163884;19;20010;-72
2023/11/11 00:07:06;;;;;;;12.98;7.88;;;9.40;88.70;;;;;;9160780;19;20010;-72
2023/11/11 00:10:13;;;;;;;13.40;7.95;;;9.50;88.70;;;;;;9164622;19;20070;-72
2023/11/11 00:13:20;;;;;;;19.85;9.90;;;9.40;88.60;;;;;;9163649;19;21094;-71
2023/11/11 00:16:26;;;;;;;21.60;9.63;;;9.40;88.60;;;;;;9160067;19;20014;-71
2023/11/11 00:19:34;;;;;;;17.70;8.98;;;9.40;88.60;;;;;;9168261;19;20018;-71
2023/11/11 00:22:43;;;;;;;21.40;9.98;;;9.40;88.50;;;;;;9168254;19;20086;-71
2023/11/11 00:25:50;;;;;;;19.05;10.02;;;9.40;88.60;;;;;;9164422;19;20022;-72
2023/11/11 00:28:56;;;;;;;19.55;10.48;;;9.30;88.50;;;;;;9167390;19;20451;-71
2023/11/11 00:32:04;;;;;;;28.27;11.95;;;9.30;88.50;;;;;;9165571;19;20019;-72
2023/11/11 00:35:11;;;;;;;19.55;10.40;;;9.30;88.50;;;;;;9167329;19;20059;-72
2023/11/11 00:38:22;;;;;;;12.23;7.97;;;9.30;88.50;;;;;;9165040;19;20018;-72
2023/11/11 00:41:28;;;;;;;12.32;7.47;;;9.30;88.60;;;;;;9163037;19;20471;-72
2023/11/11 00:44:37;;;;;;;11.48;7.32;;;9.20;88.50;;;;;;9166110;19;20029;-72
2023/11/11 00:47:43;;;;;;;11.50;7.85;;;9.20;88.60;;;;;;9165951;19;20010;-71
2023/11/11 00:50:50;;;;;;;11.80;6.85;;;9.20;88.50;;;;;;9167345;19;20025;-72
2023/11/11 00:53:58;;;;;;;14.93;7.57;;;9.20;88.60;;;;;;9166999;19;20015;-71
2023/11/11 00:57:07;;;;;;;10.35;7.47;;;9.10;88.50;;;;;;9164296;19;20011;-72
2023/11/11 01:00:13;;;;;;;14.48;7.97;;;9.20;88.60;;;;;;9165958;19;20018;-71
2023/11/11 01:03:20;;;;;;;17.08;8.18;;;9.10;88.50;;;;;;9166182;19;20025;-71
2023/11/11 01:06:26;;;;;;;14.45;7.53;;;9.10;88.60;;;;;;9165638;19;20018;-72
2023/11/11 01:09:36;;;;;;;11.73;7.20;;;9.10;88.60;;;;;;9166372;19;20026;-74
2023/11/11 01:12:42;;;;;;;18.77;7.35;;;9.10;88.50;;;;;;9166070;19;20043;-72
2023/11/11 01:15:52;;;;;;;11.90;7.60;;;9.10;88.60;;;;;;9165411;19;20019;-72
2023/11/11 01:18:58;;;;;;;14.88;7.53;;;9.00;88.50;;;;;;9165204;19;20022;-72
2023/11/11 01:22:08;;;;;;;11.50;6.97;;;9.00;88.50;;;;;;9163977;19;20825;-71
2023/11/11 01:25:18;;;;;;;11.85;6.93;;;9.00;88.50;;;;;;9166312;19;20485;-72
2023/11/11 01:28:26;;;;;;;11.90;7.03;;;9.00;88.50;;;;;;9165796;19;20014;-72
2023/11/11 01:31:31;;;;;;;11.05;7.03;;;9.00;88.50;;;;;;9162808;19;20015;-71
2023/11/11 01:34:39;;;;;;;13.80;7.00;;;9.00;88.50;;;;;;9158130;19;20025;-70
2023/11/11 01:37:44;;;;;;;10.00;5.78;;;9.00;88.50;;;;;;9160861;19;20480;-72
2023/11/11 01:40:54;;;;;;;12.68;6.07;;;8.90;88.50;;;;;;9160162;19;20799;-73
2023/11/11 01:44:00;;;;;;;12.77;6.43;;;8.90;88.50;;;;;;9164973;19;20018;-73
2023/11/11 01:47:08;;;;;;;12.35;5.93;;;8.90;88.50;;;;;;9163615;19;20593;-72
2023/11/11 01:50:14;;;;;;;9.48;5.35;;;8.90;88.50;;;;;;9162173;19;20014;-71
2023/11/11 01:53:22;;;;;;;10.20;6.03;;;8.90;88.50;;;;;;9163766;19;20027;-73
2023/11/11 01:56:31;;;;;;;12.02;5.72;;;8.90;88.60;;;;;;9161969;19;20422;-72
2023/11/11 01:59:40;;;;;;;10.18;5.85;;;8.80;88.60;;;;;;9161693;19;20465;-73
2023/11/11 02:02:45;;;;;;;10.13;5.45;;;8.80;88.60;;;;;;9161866;19;20019;-71
2023/11/11 02:05:56;;;;;;;10.23;5.80;;;8.80;88.50;;;;;;9162605;19;20770;-72
2023/11/11 02:09:01;;;;;;;8.30;4.72;;;8.70;88.50;;;;;;9163952;19;20105;-71
2023/11/11 02:12:12;;;;;;;8.60;5.50;;;8.80;88.60;;;;;;9165383;19;20018;-71
2023/11/11 02:15:17;;;;;;;11.45;4.85;;;8.70;88.60;;;;;;9162738;19;20433;-72
2023/11/11 02:18:26;;;;;;;12.32;4.85;;;8.70;88.50;;;;;;9162226;19;20063;-71
2023/11/11 02:21:31;;;;;;;8.10;5.07;;;8.70;88.50;;;;;;9163482;19;20018;-71
2023/11/11 02:24:42;;;;;;;12.23;5.28;;;8.70;88.50;;;;;;9163624;19;20048;-72
2023/11/11 02:27:48;;;;;;;7.93;5.13;;;8.60;88.40;;;;;;9162915;19;20018;-71
2023/11/11 02:30:55;;;;;;;9.68;5.05;;;8.50;88.30;;;;;;9160598;19;20034;-71
2023/11/11 02:34:02;;;;;;;9.43;5.43;;;8.50;88.40;;;;;;9162952;19;20011;-71
2023/11/11 02:37:09;;;;;;;12.75;5.40;;;8.50;88.40;;;;;;9161289;19;20018;-71
2023/11/11 02:40:18;;;;;;;15.73;5.25;;;8.40;88.40;;;;;;9156256;19;20022;-72
2023/11/11 02:43:26;;;;;;;10.60;4.85;;;8.40;88.40;;;;;;9161703;19;20018;-71
2023/11/11 02:46:31;;;;;;;8.55;5.00;;;8.40;88.40;;;;;;9158466;19;20653;-71
2023/11/11 02:49:40;;;;;;;10.52;4.35;;;8.30;88.40;;;;;;9171476;19;20011;-70
2023/11/11 02:52:45;;;;;;;7.85;4.93;;;8.30;88.50;;;;;;9169427;19;20010;-71
2023/11/11 02:55:55;;;;;;;11.13;4.28;;;8.30;88.60;;;;;;9171574;19;20014;-71
2023/11/11 02:59:00;;;;;;;7.93;4.43;;;8.30;88.70;;;;;;9169408;19;20059;-71
2023/11/11 03:02:10;;;;;;;9.98;3.95;;;8.20;89.30;;;;;;9170522;19;20019;-71
2023/11/11 03:05:16;;;;;;;11.63;4.38;;;8.30;90.20;;;;;;9170248;19;20029;-70
2023/11/11 03:08:23;;;;;;;6.53;3.85;;;8.20;90.50;;;;;;9169953;19;20018;-70
2023/11/11 03:11:32;;;;;;;7.80;4.07;;;8.10;88.30;;;;;;9172276;19;20356;-70
2023/11/11 03:14:40;;;;;;;8.18;3.72;;;8.10;88.30;;;;;;9171647;19;20011;-70
2023/11/11 03:17:48;;;;;;;5.40;3.33;;;8.00;88.20;;;;;;9168785;19;20346;-71
2023/11/11 03:20:57;;;;;;;9.40;3.65;;;8.00;88.20;;;;;;9170641;19;20015;-70
2023/11/11 03:24:02;;;;;;;6.43;3.13;;;8.00;88.20;;;;;;9168680;19;20023;-71
2023/11/11 03:27:13;;;;;;;6.28;3.10;;;7.90;88.20;;;;;;9167702;19;20045;-71
2023/11/11 03:30:18;;;;;;;5.60;2.92;;;7.90;88.20;;;;;;9170469;19;20014;-71
2023/11/11 03:33:27;;;;;;;8.93;3.33;;;7.80;88.10;;;;;;9170122;19;20015;-71
2023/11/11 03:36:33;;;;;;;6.38;2.97;;;7.90;88.30;;;;;;9167467;19;20022;-70
2023/11/11 03:39:40;;;;;;;8.38;2.80;;;7.70;88.20;;;;;;9163780;19;20034;-70
2023/11/11 03:42:48;;;;;;;9.23;3.10;;;7.80;88.30;;;;;;9168197;19;20022;-71
2023/11/11 03:45:56;;;;;;;8.98;2.88;;;7.70;88.20;;;;;;9165892;19;20038;-72
2023/11/11 03:49:01;;;;;;;9.23;3.25;;;7.70;88.30;;;;;;9166792;19;20090;-71
2023/11/11 03:52:09;;;;;;;8.73;3.10;;;7.70;88.40;;;;;;9166932;19;20054;-70
2023/11/11 03:55:15;;;;;;;11.30;2.92;;;7.70;88.40;;;;;;9167667;19;20044;-73
2023/11/11 03:58:25;;;;;;;9.05;3.30;;;7.70;88.40;;;;;;9164685;19;20333;-71
2023/11/11 04:01:30;;;;;;;6.20;2.35;;;7.60;88.30;;;;;;9168292;19;20040;-72
2023/11/11 04:04:41;;;;;;;6.88;3.30;;;7.60;88.30;;;;;;9168262;19;20024;-69
2023/11/11 04:07:47;;;;;;;9.80;2.90;;;7.60;88.40;;;;;;9166422;19;20014;-71
2023/11/11 04:10:55;;;;;;;5.18;2.95;;;7.60;88.50;;;;;;9166629;19;20015;-69
2023/11/11 04:14:03;;;;;;;9.15;2.75;;;7.60;88.60;;;;;;9168533;19;20014;-71
2023/11/11 04:17:10;;;;;;;4.50;2.60;;;7.50;88.60;;;;;;9167150;19;20014;-71
2023/11/11 04:20:17;;;;;;;8.43;2.85;;;7.60;89.20;;;;;;9166510;19;20414;-70
2023/11/11 04:23:26;;;;;;;4.93;2.47;;;7.50;89.40;;;;;;9164433;19;20010;-70
2023/11/11 04:26:31;;;;;;;6.57;2.22;;;7.50;89.70;;;;;;9167524;19;20018;-70
2023/11/11 04:29:41;;;;;;;5.53;2.72;;;7.50;90.10;;;;;;9168588;19;21051;-70
2023/11/11 04:32:46;;;;;;;4.90;2.22;;;7.60;90.90;;;;;;9166475;19;20056;-72
2023/11/11 04:35:54;;;;;;;6.03;2.55;;;7.60;91.50;;;;;;9167823;19;20503;-69
2023/11/11 04:38:59;;;;;;;8.98;2.80;;;7.50;89.70;;;;;;9165116;19;20030;-70
2023/11/11 04:42:07;;;;;;;7.50;2.30;;;7.50;90.00;;;;;;9163092;19;20031;-71
2023/11/11 04:45:15;;;;;;;6.57;2.50;;;7.40;89.00;;;;;;9165909;19;20022;-70
2023/11/11 04:48:23;;;;;;;6.50;2.72;;;7.50;89.40;;;;;;9165848;19;20026;-71
2023/11/11 04:51:28;;;;;;;11.13;3.05;;;7.40;89.50;;;;;;9167533;19;20024;-71
2023/11/11 04:54:38;;;;;;;7.72;3.03;;;7.40;89.30;;;;;;9165791;19;20879;-70
2023/11/11 04:57:44;;;;;;;7.68;3.15;;;7.30;88.50;;;;;;9164337;19;20566;-70
2023/11/11 05:00:54;;;;;;;6.75;2.55;;;7.30;88.60;;;;;;9166269;19;20494;-71
2023/11/11 05:04:00;;;;;;;9.15;2.63;;;7.30;89.20;;;;;;9166010;19;20014;-71
2023/11/11 05:07:07;;;;;;;8.68;2.80;;;7.30;89.40;;;;;;9165655;19;20259;-72
2023/11/11 05:10:17;;;;;;;4.43;2.15;;;7.40;90.20;;;;;;9164675;19;20019;-70
2023/11/11 05:13:25;;;;;;;5.18;2.17;;;7.30;88.60;;;;;;9166542;19;20015;-71
2023/11/11 05:16:39;;;;;;;5.72;2.22;;;7.30;88.80;;;;;;9165411;19;20026;-70
2023/11/11 05:19:49;;;;;;;6.32;2.15;;;7.30;89.30;;;;;;9162386;19;20017;-71
2023/11/11 05:22:54;;;;;;;12.02;2.42;;;7.40;89.50;;;;;;9165531;19;20022;-70
2023/11/11 05:26:02;;;;;;;6.88;2.75;;;7.20;88.90;;;;;;9164224;19;20019;-71
2023/11/11 05:29:08;;;;;;;7.28;2.10;;;7.30;90.10;;;;;;9163599;19;20492;-70
2023/11/11 05:32:18;;;;;;;3.10;2.20;;;7.20;88.80;;;;;;9164692;19;20364;-70
2023/11/11 05:35:23;;;;;;;9.52;2.75;;;7.30;89.90;;;;;;9163391;19;20761;-72
2023/11/11 05:38:31;;;;;;;7.95;2.28;;;7.40;91.10;;;;;;9163840;19;20435;-69
2023/11/11 05:41:37;;;;;;;8.23;2.22;;;7.40;91.20;;;;;;9160657;19;20037;-70
2023/11/11 05:44:44;;;;;;;4.55;2.58;;;7.30;89.90;;;;;;9163906;19;20029;-72
2023/11/11 05:47:52;;;;;;;9.77;2.05;;;7.30;90.10;;;;;;9164131;19;20023;-70
2023/11/11 05:51:00;;;;;;;5.22;1.85;;;7.10;90.20;;;;;;9164879;19;20014;-70
2023/11/11 05:54:05;;;;;;;3.17;1.50;;;7.30;90.80;;;;;;9164637;19;20014;-70
2023/11/11 05:57:12;;;;;;;3.85;1.70;;;7.20;88.80;;;;;;9162331;19;20467;-70
2023/11/11 06:00:18;;;;;;;3.65;1.70;;;7.30;89.60;;;;;;9159990;19;20109;-72
2023/11/11 06:03:28;;;;;;;2.78;1.48;;;7.30;90.70;;;;;;9163665;19;20017;-71
2023/11/11 06:06:41;;;;;;;4.07;1.85;;;7.20;90.10;;;;;;9164091;19;20015;-70
2023/11/11 06:09:49;;;;;;;2.80;1.85;;;7.30;89.20;;;;;;9164411;19;20034;-72
2023/11/11 06:12:55;;;;;;;7.22;2.00;;;7.10;90.60;;;;;;9161280;19;20018;-70
2023/11/11 06:16:04;;;;;;;3.17;2.10;;;7.30;90.50;;;;;;9154861;19;20022;-72
2023/11/11 06:19:13;;;;;;;7.20;2.15;;;7.30;90.80;;;;;;9158573;19;20106;-70
2023/11/11 06:22:20;;;;;;;5.68;2.00;;;7.30;90.40;;;;;;9160137;19;20022;-70
2023/11/11 06:25:26;;;;;;;5.63;1.83;;;7.30;90.00;;;;;;9160767;19;20052;-70
2023/11/11 06:28:34;;;;;;;3.38;1.85;;;7.30;90.60;;;;;;9157815;19;20786;-69
2023/11/11 06:31:39;;;;;;;5.10;2.30;;;7.10;88.80;;;;;;9161956;19;20022;-70
2023/11/11 06:34:49;;;;;;;9.07;2.03;;;7.20;89.20;;;;;;9162256;19;20022;-70
2023/11/11 06:37:56;;;;;;;5.63;1.92;;;7.20;90.30;;;;;;9159961;19;20015;-72
2023/11/11 06:41:04;;;;;;;3.85;1.65;;;7.10;89.30;;;;;;9153850;19;20018;-71
2023/11/11 06:44:10;;;;;;;6.90;1.75;;;7.20;89.60;;;;;;9161336;19;20019;-71
2023/11/11 06:47:17;;;;;;;2.75;1.45;;;7.10;89.40;;;;;;9158671;19;20021;-72
2023/11/11 06:50:25;;;;;;;3.95;2.00;;;7.10;89.20;;;;;;9161547;19;20025;-70
2023/11/11 06:53:34;;;;;;;6.88;1.50;;;7.10;89.90;;;;;;9158115;19;20018;-71
2023/11/11 06:56:39;;;;;;;6.15;1.70;;;7.20;90.20;;;;;;9158587;19;20370;-70
2023/11/11 06:59:47;;;;;;;5.68;1.67;;;7.20;90.20;;;;;;9158015;19;20035;-70
2023/11/11 07:02:54;;;;;;;11.43;1.30;;;7.30;91.60;;;;;;9159936;19;20137;-69
2023/11/11 07:06:05;;;;;;;5.65;1.55;;;7.20;88.80;;;;;;9159622;19;20026;-70
2023/11/11 07:09:12;;;;;;;2.55;0.93;;;7.10;89.30;;;;;;9161833;19;20015;-70
2023/11/11 07:12:21;;;;;;;2.65;1.00;;;7.20;90.70;;;;;;9161833;19;20027;-69
2023/11/11 07:15:27;;;;;;;4.00;0.93;;;7.10;89.00;;;;;;9159545;19;20022;-70
2023/11/11 07:18:35;;;;;;;8.00;1.33;;;7.20;90.10;;;;;;9160295;19;20015;-70
2023/11/11 07:21:43;;;;;;;2.85;0.98;;;7.20;88.90;;;;;;9161443;19;20018;-69
2023/11/11 07:24:50;;;;;;;2.78;1.13;;;7.20;89.00;;;;;;9160958;19;20022;-70
2023/11/11 07:27:55;;;;;;;4.68;1.05;;;7.20;89.20;;;;;;9159774;19;20047;-73
2023/11/11 07:31:03;;;;;;;5.97;1.50;;;7.20;89.10;;;;;;9161153;19;20014;-71
2023/11/11 07:34:11;;;;;;;6.25;1.55;;;7.30;90.50;;;;;;9162322;19;20056;-71
2023/11/11 07:37:23;;;;;;;7.65;1.35;;;7.20;88.80;;;;;;9169516;19;20010;-71
2023/11/11 07:40:28;;;;;;;2.45;0.90;;;7.20;88.90;;;;;;9162833;19;20080;-72
2023/11/11 07:43:36;;;;;;;2.10;0.90;;;7.30;88.90;;;;;;9170543;19;20015;-70
2023/11/11 07:46:41;;;;;;;4.45;1.02;;;7.30;88.90;;;;;;9170846;19;20382;-71
2023/11/11 07:49:48;;;;;;;3.35;1.08;;;7.30;88.90;;;;;;9169557;19;20022;-72
2023/11/11 07:52:56;;;;;;;4.45;1.17;;;7.30;88.90;;;;;;9169586;19;20033;-70
2023/11/11 07:56:04;;;;;;;1.55;1.05;;;7.40;89.00;;;;;;9169777;19;20014;-70
2023/11/11 07:59:10;;;;;;;6.78;1.25;;;7.40;89.10;;;;;;9168203;19;20022;-72
2023/11/11 08:02:18;;;;;;;2.33;1.15;;;7.40;89.10;;;;;;9167311;19;20799;-70
2023/11/11 08:05:27;;;;;;;5.07;1.00;;;7.50;89.20;;;;;;9169317;19;20061;-70
2023/11/11 08:08:37;;;;;;;6.38;1.25;;;7.50;89.20;;;;;;9167581;19;20015;-70
2023/11/11 08:11:43;;;;;;;3.85;0.95;;;7.50;89.20;;;;;;9168808;19;20143;-72
2023/11/11 08:14:51;;;;;;;6.40;1.00;;;7.60;89.30;;;;;;9168156;19;20021;-69
2023/11/11 08:18:03;;;;;;;3.58;1.30;;;7.60;89.20;;;;;;9167800;19;20530;-71
2023/11/11 08:21:11;;;;;;;2.85;0.85;;;7.60;89.30;;;;;;9166246;19;20026;-72
2023/11/11 08:24:18;;;;;;;6.28;1.27;;;7.70;89.30;;;;;;9168834;19;20022;-71
2023/11/11 08:27:26;;;;;;;3.47;1.17;;;7.70;89.20;;;;;;9166241;19;20078;-73
2023/11/11 08:30:37;;;;;;;5.80;1.55;;;7.80;89.30;;;;;;9166030;19;20033;-71
2023/11/11 08:33:48;;;;;;;3.83;1.08;;;7.80;89.30;;;;;;9164228;19;20022;-73
2023/11/11 08:36:53;;;;;;;5.88;1.15;;;7.80;89.20;;;;;;9166088;19;20048;-71
2023/11/11 08:40:06;;;;;;;9.18;1.38;;;7.90;89.30;;;;;;9162613;19;20014;-72
2023/11/11 08:43:11;;;;;;;8.55;1.92;;;7.90;89.20;;;;;;9167653;19;20400;-72
2023/11/11 08:46:19;;;;;;;7.13;1.33;;;8.00;89.20;;;;;;9166773;19;20909;-71
2023/11/11 08:49:24;;;;;;;2.03;0.95;;;8.00;89.20;;;;;;9164659;19;20511;-72
2023/11/11 08:52:33;;;;;;;4.05;1.05;;;8.00;89.20;;;;;;9165383;19;20025;-71
2023/11/11 08:55:41;;;;;;;3.10;1.25;;;8.00;89.10;;;;;;9164494;19;20652;-71
2023/11/11 08:58:49;;;;;;;2.78;1.10;;;8.00;89.20;;;;;;9166156;19;20380;-71
2023/11/11 09:01:57;;;;;;;3.97;1.42;;;8.10;89.20;;;;;;9163498;19;20704;-72
2023/11/11 09:05:05;;;;;;;2.13;1.10;;;8.10;89.20;;;;;;9163488;19;20769;-71
2023/11/11 09:08:11;;;;;;;5.10;1.10;;;8.10;89.20;;;;;;9165940;19;20034;-72
2023/11/11 09:11:21;;;;;;;9.80;2.05;;;8.20;89.20;;;;;;9163408;19;20026;-71
2023/11/11 09:14:26;;;;;;;22.30;9.63;;;8.20;89.20;;;;;;9161965;19;20044;-73
2023/11/11 09:17:35;;;;;;;7.07;1.98;;;8.20;89.80;;;;;;9162772;19;20499;-73
2023/11/11 09:20:40;;;;;;;2.60;1.25;;;8.30;89.30;;;;;;9163493;19;20021;-72
2023/11/11 09:23:48;;;;;;;3.97;1.60;;;8.30;89.30;;;;;;9163442;19;20758;-73
2023/11/11 09:26:56;;;;;;;6.38;1.45;;;8.30;89.20;;;;;;9161699;19;20468;-72
2023/11/11 09:30:08;;;;;;;2.27;1.00;;;8.40;89.30;;;;;;9163506;19;20023;-73
2023/11/11 09:33:14;;;;;;;4.00;1.60;;;8.40;89.30;;;;;;9162252;19;20472;-72
2023/11/11 09:36:22;;;;;;;3.15;1.17;;;8.40;89.30;;;;;;9160968;19;20026;-74
2023/11/11 09:39:29;;;;;;;2.00;0.95;;;8.50;89.30;;;;;;9163741;19;20022;-72
2023/11/11 09:42:40;;;;;;;5.43;1.05;;;8.50;89.20;;;;;;9162184;19;20022;-72
2023/11/11 09:45:46;;;;;;;6.35;1.05;;;8.50;89.20;;;;;;9162927;19;20048;-73
2023/11/11 09:48:55;;;;;;;2.47;0.80;;;8.60;89.30;;;;;;9162129;19;20022;-73
2023/11/11 09:52:02;;;;;;;3.85;0.88;;;8.60;90.00;;;;;;9161316;19;20014;-73
2023/11/11 09:55:13;;;;;;;4.22;1.00;;;8.60;89.20;;;;;;9162555;19;20019;-73
2023/11/11 09:58:24;;;;;;;2.15;1.13;;;8.60;89.80;;;;;;9160794;19;20325;-73
2023/11/11 10:01:32;;;;;;;7.32;1.42;;;8.70;89.30;;;;;;9160945;19;20018;-73
2023/11/11 10:04:41;;;;;;;2.88;1.05;;;8.70;89.80;;;;;;9160637;19;20878;-72
2023/11/11 10:07:48;;;;;;;5.32;1.67;;;8.70;89.10;;;;;;9161434;19;20015;-72
2023/11/11 10:10:55;;;;;;;4.30;1.50;;;8.70;89.10;;;;;;9160916;19;20014;-73
2023/11/11 10:14:05;;;;;;;1.55;1.00;;;8.70;89.10;;;;;;9161051;19;20440;-73
2023/11/11 10:17:11;;;;;;;2.83;1.00;;;8.70;89.00;;;;;;9160898;19;20014;-73
2023/11/11 10:20:25;;;;;;;6.10;1.23;;;8.80;89.10;;;;;;9158947;19;20048;-72
2023/11/11 10:23:31;;;;;;;2.80;1.00;;;8.80;89.20;;;;;;9160174;19;20018;-73
2023/11/11 10:26:41;;;;;;;2.53;1.10;;;8.80;89.10;;;;;;9158532;19;20018;-73
2023/11/11 10:29:50;;;;;;;4.20;1.92;;;8.80;89.00;;;;;;9160116;19;20018;-75
2023/11/11 10:33:04;;;;;;;10.00;1.65;;;8.80;89.10;;;;;;9161463;19;20428;-74
2023/11/11 10:36:10;;;;;;;2.33;1.30;;;8.80;90.60;;;;;;9161064;19;20342;-73
2023/11/11 10:39:18;;;;;;;5.55;1.65;;;9.00;90.70;;;;;;9161623;19;20015;-74
2023/11/11 10:42:26;;;;;;;1.90;1.50;;;9.00;90.30;;;;;;9160192;19;20022;-73
2023/11/11 10:45:36;;;;;;;7.45;2.03;;;9.10;89.90;;;;;;9161234;19;20033;-73
2023/11/11 10:48:43;;;;;;;4.35;2.42;;;9.20;90.00;;;;;;9160492;19;20395;-75
2023/11/11 10:51:52;;;;;;;6.15;1.80;;;9.40;90.10;;;;;;9160690;19;20029;-73
2023/11/11 10:54:59;;;;;;;4.53;1.75;;;9.60;91.20;;;;;;9161223;19;20073;-74
2023/11/11 10:58:10;;;;;;;11.35;1.55;;;9.80;90.80;;;;;;9159680;19;20018;-73
2023/11/11 11:01:18;;;;;;;2.47;1.25;;;9.80;90.00;;;;;;9159719;19;20014;-73
2023/11/11 11:04:30;;;;;;;8.45;1.45;;;9.90;90.10;;;;;;9160346;19;20022;-74
2023/11/11 11:07:43;;;;;;;5.25;1.50;;;10.00;90.40;;;;;;9161657;19;20032;-72
2023/11/11 11:11:14;;;;;;;9.75;1.90;;;10.20;90.20;;;;;;9167102;19;20019;-71
2023/11/11 11:14:30;;;;;;;2.42;1.08;;;10.10;89.20;;;;;;9168336;19;20513;-72
2023/11/11 11:17:44;;;;;;;7.57;1.40;;;10.10;89.80;;;;;;9168111;19;20026;-73
2023/11/11 11:20:49;;;;;;;6.15;2.22;;;10.20;89.10;;;;;;9168131;19;20085;-74
2023/11/11 11:23:57;;;;;;;4.25;1.40;;;10.20;89.00;;;;;;9167227;19;20396;-73
2023/11/11 11:27:02;;;;;;;6.88;2.00;;;10.20;89.00;;;;;;9165446;19;20614;-74
2023/11/11 11:30:26;;;;;;;2.85;1.38;;;10.30;89.00;;;;;;9168260;19;20476;-74
2023/11/11 11:33:35;;;;;;;1.70;1.10;;;10.30;88.90;;;;;;9167351;19;20505;-73
2023/11/11 11:36:54;;;;;;;10.45;3.70;;;10.30;88.80;;;;;;9167347;19;20026;-73
2023/11/11 11:40:08;;;;;;;1.40;0.80;;;10.30;88.80;;;;;;9168184;19;20018;-73
2023/11/11 11:43:28;;;;;;;3.58;0.80;;;10.30;88.70;;;;;;9160051;19;20021;-73
2023/11/11 11:46:34;;;;;;;3.13;1.02;;;10.30;88.70;;;;;;9163894;19;20800;-73
2023/11/11 11:49:44;;;;;;;6.50;1.60;;;10.20;88.60;;;;;;9165558;19;20026;-73
2023/11/11 11:52:50;;;;;;;5.10;1.02;;;10.30;88.60;;;;;;9167419;19;20048;-74
2023/11/11 11:55:57;;;;;;;3.20;0.85;;;10.20;88.50;;;;;;9165474;19;20015;-75
2023/11/11 11:59:03;;;;;;;3.80;0.93;;;10.30;88.50;;;;;;9164649;19;20018;-71
2023/11/11 12:02:12;;;;;;;4.45;1.75;;;10.20;88.50;;;;;;9163816;19;20033;-74
2023/11/11 12:05:22;;;;;;;9.77;1.40;;;10.30;88.50;;;;;;9161734;19;20010;-75
2023/11/11 12:08:29;;;;;;;5.47;1.00;;;10.30;88.50;;;;;;9165299;19;20015;-73
2023/11/11 12:11:35;;;;;;;4.57;1.00;;;10.30;88.60;;;;;;9164761;19;20021;-74
2023/11/11 12:14:43;;;;;;;5.15;1.20;;;10.30;88.50;;;;;;9165643;19;20623;-72
2023/11/11 12:17:48;;;;;;;6.05;0.93;;;10.30;88.50;;;;;;9161266;19;20023;-73
2023/11/11 12:20:58;;;;;;;1.70;1.00;;;10.30;88.60;;;;;;9159704;19;20014;-73
2023/11/11 12:24:08;;;;;;;3.30;1.20;;;10.30;88.50;;;;;;9158296;19;20607;-74
2023/11/11 12:27:15;;;;;;;6.30;1.65;;;10.30;88.60;;;;;;9161279;19;20345;-73
2023/11/11 12:30:22;;;;;;;5.85;1.40;;;10.30;88.60;;;;;;9165365;19;20066;-72
2023/11/11 12:33:29;;;;;;;4.55;1.02;;;10.30;88.60;;;;;;9164363;19;20022;-74
2023/11/11 12:36:37;;;;;;;3.33;1.10;;;10.40;88.70;;;;;;9165360;19;20022;-74
2023/11/11 12:39:51;;;;;;;5.40;1.30;;;10.40;88.70;;;;;;9164509;19;20797;-73
2023/11/11 12:42:57;;;;;;;7.00;1.40;;;10.40;88.70;;;;;;9163561;19;20450;-72
2023/11/11 12:46:06;;;;;;;6.07;1.73;;;10.50;89.20;;;;;;9155109;19;20018;-73
2023/11/11 12:49:13;;;;;;;3.95;1.00;;;10.50;88.50;;;;;;9165773;19;20019;-72
2023/11/11 12:52:24;;;;;;;6.20;1.30;;;10.60;88.60;;;;;;9166954;19;20367;-72
2023/11/11 12:55:30;;;;;;;4.25;1.30;;;10.60;88.50;;;;;;9166828;19;20727;-72
2023/11/11 12:58:38;;;;;;;3.45;1.40;;;10.60;88.40;;;;;;9167120;19;20015;-73
2023/11/11 13:01:44;;;;;;;4.85;1.48;;;10.70;88.50;;;;;;9165596;19;20710;-73
2023/11/11 13:04:52;;;;;;;6.38;1.20;;;10.70;88.50;;;;;;9164233;19;20037;-71
2023/11/11 13:08:08;;;;;;;3.05;0.95;;;10.70;88.40;;;;;;9166336;19;20029;-76
2023/11/11 13:11:16;;;;;;;7.30;1.92;;;10.80;88.40;;;;;;9166413;19;20616;-73
2023/11/11 13:14:22;;;;;;;9.20;1.20;;;10.80;88.20;;;;;;9165949;19;20010;-75
2023/11/11 13:17:30;;;;;;;9.27;1.15;;;10.90;88.30;;;;;;9166211;19;20018;-75
2023/11/11 13:20:35;;;;;;;7.63;1.10;;;10.90;88.30;;;;;;9164287;19;20010;-74
2023/11/11 13:23:46;;;;;;;5.95;1.08;;;10.90;88.20;;;;;;9160476;19;20013;-73
2023/11/11 13:26:51;;;;;;;9.93;1.30;;;11.00;88.20;;;;;;9162879;19;20052;-73
2023/11/11 13:29:59;;;;;;;4.38;0.80;;;11.00;88.00;;;;;;9164251;19;20014;-73
2023/11/11 13:33:07;;;;;;;7.05;1.23;;;11.10;88.00;;;;;;9161606;19;20029;-74
2023/11/11 13:36:16;;;;;;;4.47;1.50;;;11.10;87.80;;;;;;9164289;19;20025;-71
2023/11/11 13:39:34;;;;;;;5.45;2.35;;;11.10;87.80;;;;;;9164067;19;20033;-71
2023/11/11 13:42:43;;;;;;;4.10;1.20;;;11.10;87.70;;;;;;9163215;19;20014;-72
2023/11/11 13:45:49;;;;;;;6.90;1.50;;;11.10;87.70;;;;;;9158874;19;20018;-72
2023/11/11 13:48:58;;;;;;;4.57;1.50;;;11.10;87.70;;;;;;9165501;19;20534;-71
2023/11/11 13:52:03;;;;;;;8.23;1.40;;;11.10;87.70;;;;;;9163117;19;20036;-71
2023/11/11 13:55:14;;;;;;;5.50;1.30;;;11.20;87.70;;;;;;9162090;19;20017;-71
2023/11/11 13:58:20;;;;;;;3.15;1.38;;;11.20;87.80;;;;;;9164256;19;20048;-71
2023/11/11 14:01:28;;;;;;;4.18;1.60;;;11.20;87.60;;;;;;9161472;19;20376;-71
2023/11/11 14:04:34;;;;;;;8.88;1.83;;;11.20;87.50;;;;;;9161065;19;20019;-72
2023/11/11 14:07:42;;;;;;;4.75;1.15;;;11.20;87.40;;;;;;9164310;19;20025;-71
2023/11/11 14:10:50;;;;;;;3.83;1.70;;;11.20;87.40;;;;;;9165666;19;20458;-73
2023/11/11 14:13:57;;;;;;;5.15;1.30;;;11.20;87.40;;;;;;9162185;19;20397;-71
2023/11/11 14:17:03;;;;;;;7.78;1.73;;;11.20;87.40;;;;;;9161947;19;20168;-72
2023/11/11 14:20:13;;;;;;;8.75;1.00;;;11.20;87.40;;;;;;9163489;19;20372;-71
2023/11/11 14:23:19;;;;;;;5.25;1.42;;;11.20;87.30;;;;;;9160841;19;20014;-72
2023/11/11 14:26:29;;;;;;;3.88;1.17;;;11.20;87.30;;;;;;9161173;19;20544;-72
2023/11/11 14:29:35;;;;;;;2.25;1.20;;;11.20;87.30;;;;;;9162995;19;20023;-72
2023/11/11 14:32:43;;;;;;;1.75;1.38;;;11.20;87.30;;;;;;9162401;19;20022;-72
2023/11/11 14:35:51;;;;;;;6.88;2.53;;;11.20;87.70;;;;;;9161730;19;20073;-74
2023/11/11 14:38:59;;;;;;;6.40;1.65;;;11.20;87.10;;;;;;9161148;19;20019;-72
2023/11/11 14:42:08;;;;;;;6.60;1.30;;;11.20;87.10;;;;;;9162512;19;20055;-72
2023/11/11 14:45:18;;;;;;;2.53;1.00;;;11.20;87.10;;;;;;9162183;19;20022;-74
2023/11/11 14:48:25;;;;;;;6.53;1.48;;;11.20;87.10;;;;;;9171051;19;20443;-72
2023/11/11 14:51:33;;;;;;;4.43;1.27;;;11.20;87.10;;;;;;9166630;19;20042;-72
2023/11/11 14:54:39;;;;;;;6.40;1.60;;;11.10;87.00;;;;;;9171754;19;20018;-72
2023/11/11 14:57:52;;;;;;;3.47;1.05;;;11.10;87.00;;;;;;9170785;19;20019;-73
2023/11/11 15:00:57;;;;;;;4.90;2.00;;;11.10;87.00;;;;;;9170691;19;20048;-75
2023/11/11 15:04:06;;;;;;;4.03;1.23;;;11.10;87.00;;;;;;9168798;19;20022;-73
2023/11/11 15:07:11;;;;;;;2.15;1.10;;;11.10;87.00;;;;;;9171573;19;20513;-73
2023/11/11 15:10:20;;;;;;;8.95;1.58;;;11.10;87.00;;;;;;9171962;19;20373;-73
2023/11/11 15:13:29;;;;;;;6.40;1.40;;;11.10;87.00;;;;;;9164945;19;20111;-74
2023/11/11 15:16:37;;;;;;;5.32;1.38;;;11.10;87.10;;;;;;9167510;19;20033;-73
2023/11/11 15:19:42;;;;;;;2.58;1.15;;;11.00;86.90;;;;;;9167286;19;20049;-73
2023/11/11 15:22:55;;;;;;;4.53;1.48;;;11.10;87.00;;;;;;9169180;19;20435;-72
2023/11/11 15:26:04;;;;;;;7.40;1.38;;;11.00;86.90;;;;;;9167082;19;20029;-73
2023/11/11 15:29:15;;;;;;;2.20;0.90;;;11.00;86.90;;;;;;9170407;19;20025;-73
2023/11/11 15:32:20;;;;;;;3.63;1.20;;;11.00;86.80;;;;;;9169764;19;20066;-73
2023/11/11 15:35:28;;;;;;;6.90;1.60;;;10.90;86.80;;;;;;9167267;19;20402;-72
2023/11/11 15:38:33;;;;;;;6.18;1.60;;;10.90;86.90;;;;;;9165300;19;20368;-72
2023/11/11 15:41:41;;;;;;;6.10;2.28;;;10.90;86.90;;;;;;9166073;19;20018;-74
2023/11/11 15:44:49;;;;;;;4.68;1.48;;;10.80;86.90;;;;;;9160934;19;20049;-72
2023/11/11 15:47:57;;;;;;;3.10;1.25;;;10.80;86.90;;;;;;9162189;19;20569;-73
2023/11/11 15:51:02;;;;;;;1.90;1.10;;;10.80;86.90;;;;;;9165500;19;20981;-73
2023/11/11 15:54:23;;;;;;;3.50;1.08;;;10.70;86.90;;;;;;9163876;19;20019;-73
2023/11/11 15:57:29;;;;;;;7.57;1.60;;;10.70;86.90;;;;;;9167988;19;20014;-72
2023/11/11 16:00:39;;;;;;;4.72;1.30;;;10.70;86.80;;;;;;9166558;19;20029;-73
2023/11/11 16:03:47;;;;;;;4.38;1.30;;;10.70;86.90;;;;;;9165366;19;20022;-72
2023/11/11 16:06:56;;;;;;;5.75;1.45;;;10.60;86.70;;;;;;9168150;19;20085;-72
2023/11/11 16:10:01;;;;;;;3.42;0.95;;;10.50;86.70;;;;;;9168709;19;20010;-72
2023/11/11 16:13:08;;;;;;;2.90;1.00;;;10.50;86.50;;;;;;9167821;19;20021;-72
2023/11/11 16:16:20;;;;;;;2.42;0.98;;;10.40;86.60;;;;;;9167924;19;20015;-74
2023/11/11 16:19:28;;;;;;;5.60;1.02;;;10.40;86.60;;;;;;9167889;19;20010;-74
2023/11/11 16:22:33;;;;;;;6.35;1.10;;;10.30;86.60;;;;;;9168471;19;20426;-74
2023/11/11 16:25:41;;;;;;;3.88;1.48;;;10.30;86.60;;;;;;9166025;19;20346;-73